createdAt,value
2022-09-16T00:01:13.632Z,12.49
2022-09-16T00:11:16.904Z,12.25
2022-09-16T00:21:20.982Z,11.76
2022-09-16T00:31:23.833Z,11.78
2022-09-16T00:41:32.859Z,11.79
2022-09-16T00:51:35.982Z,11.92
2022-09-16T01:01:42.480Z,11.92
2022-09-16T01:11:45.260Z,11.90
2022-09-16T01:21:57.053Z,11.89
2022-09-16T01:32:07.849Z,11.99
2022-09-16T01:42:21.632Z,11.91
2022-09-16T01:52:35.270Z,11.89
2022-09-16T02:02:41.507Z,11.76
2022-09-16T02:12:46.945Z,11.75
2022-09-16T02:22:53.039Z,11.79
2022-09-16T02:33:01.216Z,11.59
2022-09-16T02:43:04.691Z,11.60
2022-09-16T02:53:15.888Z,11.63
2022-09-16T03:03:19.047Z,11.66
2022-09-16T03:13:28.439Z,11.64
2022-09-16T03:23:45.433Z,11.47
2022-09-16T03:33:54.353Z,11.36
2022-09-16T03:44:03.080Z,11.26
2022-09-16T03:54:08.211Z,11.09
2022-09-16T04:04:12.247Z,11.14
2022-09-16T04:14:16.550Z,11.25
2022-09-16T04:24:19.420Z,11.33
2022-09-16T04:34:23.418Z,11.42
2022-09-16T04:44:27.110Z,11.43
2022-09-16T04:54:31.094Z,11.39
2022-09-16T05:04:33.762Z,11.31
2022-09-16T05:14:38.304Z,11.28
2022-09-16T05:24:40.999Z,11.40
2022-09-16T05:34:45.052Z,11.42
2022-09-16T05:44:47.698Z,11.40
2022-09-16T05:54:51.692Z,11.39
2022-09-16T06:04:54.356Z,11.43
2022-09-16T06:14:58.360Z,11.48
2022-09-16T06:25:01.089Z,11.42
2022-09-16T06:35:05.730Z,11.25
2022-09-16T06:45:09.327Z,11.22
2022-09-16T06:55:13.610Z,11.83
2022-09-16T07:05:16.409Z,12.22
2022-09-16T07:15:20.698Z,12.30
2022-09-16T07:25:23.380Z,12.32
2022-09-16T07:35:27.454Z,12.47
2022-09-16T07:45:30.261Z,12.72
2022-09-16T07:55:35.989Z,13.07
2022-09-16T08:05:38.691Z,13.63
2022-09-16T08:15:42.659Z,13.81
2022-09-16T08:25:45.492Z,14.08
2022-09-16T08:35:59.131Z,14.51
2022-09-16T08:46:10.588Z,14.97
2022-09-16T08:56:17.260Z,15.66
2022-09-16T09:06:33.043Z,15.99
2022-09-16T09:16:45.891Z,16.86
2022-09-16T09:26:51.482Z,17.05
2022-09-16T09:37:06.387Z,17.08
2022-09-16T09:47:14.747Z,12.46
2022-09-16T09:57:25.922Z,12.61
2022-09-16T10:07:29.135Z,13.99
2022-09-16T10:17:34.211Z,14.92
2022-09-16T10:27:38.694Z,15.53
2022-09-16T10:37:50.589Z,13.25
2022-09-16T10:47:56.523Z,14.04
2022-09-16T10:58:10.357Z,15.82
2022-09-16T11:08:20.453Z,15.19
2022-09-16T11:18:37.918Z,13.99
2022-09-16T11:28:54.425Z,25.33
2022-09-16T11:39:12.114Z,24.10
2022-09-16T11:49:31.227Z,21.99
2022-09-16T11:59:40.704Z,24.19
2022-09-16T12:09:49.520Z,27.68
2022-09-16T12:19:58.235Z,23.21
2022-09-16T12:30:06.183Z,20.48
2022-09-16T12:40:18.027Z,19.47
2022-09-16T12:50:45.363Z,18.29
2022-09-16T13:01:02.112Z,18.13
2022-09-16T13:12:00.518Z,17.97
2022-09-16T13:21:40.829Z,17.84
2022-09-16T13:31:48.946Z,17.89
2022-09-16T13:41:53.218Z,17.54
2022-09-16T13:51:56.000Z,14.83
2022-09-16T14:02:10.613Z,15.14
2022-09-16T14:12:21.994Z,15.13
2022-09-16T14:22:27.528Z,16.10
2022-09-16T14:32:32.435Z,16.04
2022-09-16T14:42:37.565Z,15.96
2022-09-16T14:52:40.584Z,16.10
2022-09-16T15:02:49.885Z,15.21
2022-09-16T15:12:55.544Z,14.71
2022-09-16T15:23:01.186Z,14.42
2022-09-16T15:33:03.963Z,13.40
2022-09-16T15:43:15.731Z,12.66
2022-09-16T15:53:23.034Z,12.65
2022-09-16T16:03:27.930Z,12.58
2022-09-16T16:13:33.407Z,12.40
2022-09-16T16:23:37.858Z,12.18
2022-09-16T16:33:44.737Z,11.82
2022-09-16T16:43:48.939Z,11.88
2022-09-16T16:53:52.999Z,11.97
2022-09-16T17:03:58.054Z,12.13
2022-09-16T17:14:02.437Z,12.29
2022-09-16T17:24:07.059Z,12.46
2022-09-16T17:34:12.833Z,12.51
2022-09-16T17:44:18.902Z,12.52
2022-09-16T17:54:22.290Z,12.50
2022-09-16T18:04:26.405Z,12.48
2022-09-16T18:14:29.132Z,12.45
2022-09-16T18:24:33.251Z,12.40
2022-09-16T18:34:36.166Z,12.36
2022-09-16T18:44:40.228Z,12.21
2022-09-16T18:54:46.717Z,12.18
2022-09-16T19:04:50.872Z,12.38
2022-09-16T19:14:55.573Z,12.46
2022-09-16T19:25:01.599Z,12.57
2022-09-16T19:35:05.128Z,12.57
2022-09-16T19:45:09.870Z,12.59
2022-09-16T19:55:12.574Z,12.73
2022-09-16T20:05:17.822Z,12.86
2022-09-16T20:15:20.566Z,12.95
2022-09-16T20:25:24.633Z,12.94
2022-09-16T20:35:27.521Z,13.00
2022-09-16T20:45:31.831Z,13.06
2022-09-16T20:55:34.600Z,12.93
2022-09-16T21:05:38.621Z,12.94
2022-09-16T21:15:41.557Z,12.93
2022-09-16T21:25:45.811Z,12.97
2022-09-16T21:35:52.079Z,12.86
2022-09-16T21:45:56.436Z,12.88
2022-09-16T21:56:02.006Z,12.99
2022-09-16T22:06:07.234Z,13.20
2022-09-16T22:16:14.034Z,13.26
2022-09-16T22:26:20.071Z,13.19
2022-09-16T22:36:24.992Z,13.34
2022-09-16T22:46:31.795Z,13.10
2022-09-16T22:56:35.620Z,12.96
2022-09-16T23:06:41.447Z,13.05
2022-09-16T23:16:44.175Z,13.08
2022-09-16T23:26:49.070Z,13.15
2022-09-16T23:36:51.797Z,13.10
2022-09-16T23:46:55.845Z,13.16
2022-09-16T23:56:58.547Z,13.17
